sensor_id;sensor_type;location;lat;lon;timestamp;pressure;altitude;pressure_sealevel;temperature;humidity
70437;BME280;57877;39.750;-104.894;2023-02-22T00:02:08;81395.98;;;7.69;24.96
70437;BME280;57877;39.750;-104.894;2023-02-22T00:04:33;81398.68;;;7.81;24.41
70437;BME280;57877;39.750;-104.894;2023-02-22T00:06:58;81405.42;;;7.81;25.09
70437;BME280;57877;39.750;-104.894;2023-02-22T00:09:24;81403.95;;;7.75;25.29
70437;BME280;57877;39.750;-104.894;2023-02-22T00:11:48;81401.60;;;6.95;25.55
70437;BME280;57877;39.750;-104.894;2023-02-22T00:14:14;81402.48;;;7.18;25.77
70437;BME280;57877;39.750;-104.894;2023-02-22T00:16:38;81407.37;;;7.43;25.62
70437;BME280;57877;39.750;-104.894;2023-02-22T00:19:04;81407.01;;;7.38;25.54
70437;BME280;57877;39.750;-104.894;2023-02-22T00:21:29;81404.45;;;7.36;25.61
70437;BME280;57877;39.750;-104.894;2023-02-22T00:23:54;81403.12;;;7.14;25.17
70437;BME280;57877;39.750;-104.894;2023-02-22T00:26:20;81405.10;;;7.35;25.44
70437;BME280;57877;39.750;-104.894;2023-02-22T00:28:45;81407.55;;;7.60;25.19
70437;BME280;57877;39.750;-104.894;2023-02-22T00:31:18;81409.91;;;7.26;25.50
70437;BME280;57877;39.750;-104.894;2023-02-22T00:33:35;81412.58;;;7.00;25.87
70437;BME280;57877;39.750;-104.894;2023-02-22T00:35:59;81417.75;;;6.96;26.02
70437;BME280;57877;39.750;-104.894;2023-02-22T00:38:24;81420.51;;;7.12;25.26
70437;BME280;57877;39.750;-104.894;2023-02-22T00:40:49;81426.43;;;7.08;25.56
70437;BME280;57877;39.750;-104.894;2023-02-22T00:43:14;81425.37;;;6.98;25.59
70437;BME280;57877;39.750;-104.894;2023-02-22T00:45:39;81426.63;;;6.45;25.98
70437;BME280;57877;39.750;-104.894;2023-02-22T00:48:06;81432.37;;;6.65;26.05
70437;BME280;57877;39.750;-104.894;2023-02-22T00:50:30;81440.99;;;6.86;25.71
70437;BME280;57877;39.750;-104.894;2023-02-22T00:52:55;81446.21;;;7.67;24.95
70437;BME280;57877;39.750;-104.894;2023-02-22T00:55:22;81451.01;;;7.83;24.25
70437;BME280;57877;39.750;-104.894;2023-02-22T00:57:44;81461.75;;;8.11;24.08
70437;BME280;57877;39.750;-104.894;2023-02-22T01:00:16;81469.26;;;8.13;24.13
70437;BME280;57877;39.750;-104.894;2023-02-22T01:02:34;81476.16;;;8.07;23.80
70437;BME280;57877;39.750;-104.894;2023-02-22T01:05:00;81480.88;;;8.18;23.69
70437;BME280;57877;39.750;-104.894;2023-02-22T01:07:25;81488.65;;;8.56;23.57
70437;BME280;57877;39.750;-104.894;2023-02-22T01:09:50;81494.04;;;8.28;23.84
70437;BME280;57877;39.750;-104.894;2023-02-22T01:12:15;81497.44;;;8.39;23.81
70437;BME280;57877;39.750;-104.894;2023-02-22T01:14:40;81506.71;;;8.61;24.00
70437;BME280;57877;39.750;-104.894;2023-02-22T01:17:05;81518.01;;;8.31;24.15
70437;BME280;57877;39.750;-104.894;2023-02-22T01:19:30;81520.04;;;8.31;24.54
70437;BME280;57877;39.750;-104.894;2023-02-22T01:21:55;81522.23;;;7.93;25.54
70437;BME280;57877;39.750;-104.894;2023-02-22T01:24:20;81525.95;;;6.88;26.71
70437;BME280;57877;39.750;-104.894;2023-02-22T01:26:51;81533.28;;;7.61;26.00
70437;BME280;57877;39.750;-104.894;2023-02-22T01:29:12;81536.20;;;8.06;25.55
70437;BME280;57877;39.750;-104.894;2023-02-22T01:31:35;81538.54;;;8.26;25.21
70437;BME280;57877;39.750;-104.894;2023-02-22T01:34:00;81538.52;;;7.50;25.47
70437;BME280;57877;39.750;-104.894;2023-02-22T01:36:25;81535.77;;;7.51;25.80
70437;BME280;57877;39.750;-104.894;2023-02-22T01:38:50;81533.05;;;7.65;25.97
70437;BME280;57877;39.750;-104.894;2023-02-22T01:41:16;81537.73;;;7.96;25.48
70437;BME280;57877;39.750;-104.894;2023-02-22T01:43:41;81544.23;;;7.92;25.45
70437;BME280;57877;39.750;-104.894;2023-02-22T01:48:37;81549.67;;;7.80;25.42
70437;BME280;57877;39.750;-104.894;2023-02-22T01:51:10;81549.46;;;7.60;26.02
70437;BME280;57877;39.750;-104.894;2023-02-22T01:53:24;81559.97;;;7.70;25.69
70437;BME280;57877;39.750;-104.894;2023-02-22T01:55:47;81555.68;;;8.10;25.20
70437;BME280;57877;39.750;-104.894;2023-02-22T01:58:13;81561.89;;;7.66;25.49
70437;BME280;57877;39.750;-104.894;2023-02-22T02:00:36;81570.53;;;7.38;25.50
70437;BME280;57877;39.750;-104.894;2023-02-22T02:03:03;81576.16;;;7.73;25.20
70437;BME280;57877;39.750;-104.894;2023-02-22T02:05:26;81575.92;;;8.28;24.80
70437;BME280;57877;39.750;-104.894;2023-02-22T02:07:51;81579.47;;;8.61;24.55
70437;BME280;57877;39.750;-104.894;2023-02-22T02:10:16;81584.81;;;8.43;24.28
70437;BME280;57877;39.750;-104.894;2023-02-22T02:12:43;81581.16;;;7.33;25.46
70437;BME280;57877;39.750;-104.894;2023-02-22T02:17:31;81588.18;;;7.38;25.62
70437;BME280;57877;39.750;-104.894;2023-02-22T02:20:00;81577.55;;;7.06;26.24
70437;BME280;57877;39.750;-104.894;2023-02-22T02:22:30;81583.44;;;7.79;25.76
70437;BME280;57877;39.750;-104.894;2023-02-22T02:27:16;81579.03;;;7.88;26.38
70437;BME280;57877;39.750;-104.894;2023-02-22T02:29:49;81582.75;;;7.63;26.83
70437;BME280;57877;39.750;-104.894;2023-02-22T02:34:32;81565.19;;;6.83;30.48
70437;BME280;57877;39.750;-104.894;2023-02-22T02:36:57;81569.45;;;6.64;30.60
70437;BME280;57877;39.750;-104.894;2023-02-22T02:39:22;81573.54;;;6.78;30.27
70437;BME280;57877;39.750;-104.894;2023-02-22T02:41:46;81574.11;;;7.32;29.95
70437;BME280;57877;39.750;-104.894;2023-02-22T02:44:11;81568.15;;;7.12;29.86
70437;BME280;57877;39.750;-104.894;2023-02-22T02:46:34;81567.31;;;7.05;30.87
70437;BME280;57877;39.750;-104.894;2023-02-22T02:48:59;81566.56;;;7.52;30.15
70437;BME280;57877;39.750;-104.894;2023-02-22T02:51:24;81566.96;;;6.82;30.69
70437;BME280;57877;39.750;-104.894;2023-02-22T02:53:48;81570.63;;;7.10;30.32
70437;BME280;57877;39.750;-104.894;2023-02-22T02:56:13;81577.95;;;7.89;29.98
70437;BME280;57877;39.750;-104.894;2023-02-22T02:58:43;81585.88;;;7.44;29.79
70437;BME280;57877;39.750;-104.894;2023-02-22T03:01:03;81598.04;;;7.42;30.04
70437;BME280;57877;39.750;-104.894;2023-02-22T03:03:41;81598.17;;;7.59;29.78
70437;BME280;57877;39.750;-104.894;2023-02-22T03:06:05;81598.46;;;7.65;29.78
70437;BME280;57877;39.750;-104.894;2023-02-22T03:08:23;81595.27;;;7.41;29.55
70437;BME280;57877;39.750;-104.894;2023-02-22T03:10:50;81594.61;;;6.34;30.77
70437;BME280;57877;39.750;-104.894;2023-02-22T03:13:12;81598.33;;;7.70;29.39
70437;BME280;57877;39.750;-104.894;2023-02-22T03:15:39;81589.09;;;7.77;29.27
70437;BME280;57877;39.750;-104.894;2023-02-22T03:18:03;81594.32;;;7.94;29.02
70437;BME280;57877;39.750;-104.894;2023-02-22T03:20:28;81595.16;;;7.73;28.89
70437;BME280;57877;39.750;-104.894;2023-02-22T03:22:51;81598.92;;;7.56;29.60
70437;BME280;57877;39.750;-104.894;2023-02-22T03:25:16;81595.07;;;7.15;30.27
70437;BME280;57877;39.750;-104.894;2023-02-22T03:27:42;81594.37;;;7.11;30.35
70437;BME280;57877;39.750;-104.894;2023-02-22T03:30:07;81594.59;;;7.31;30.47
70437;BME280;57877;39.750;-104.894;2023-02-22T03:32:31;81596.84;;;7.49;29.98
70437;BME280;57877;39.750;-104.894;2023-02-22T03:34:57;81598.37;;;7.36;30.23
70437;BME280;57877;39.750;-104.894;2023-02-22T03:37:22;81598.64;;;6.83;30.37
70437;BME280;57877;39.750;-104.894;2023-02-22T03:39:44;81607.01;;;6.08;31.75
70437;BME280;57877;39.750;-104.894;2023-02-22T03:42:11;81608.17;;;6.95;31.30
70437;BME280;57877;39.750;-104.894;2023-02-22T03:44:36;81607.75;;;6.29;32.48
70437;BME280;57877;39.750;-104.894;2023-02-22T03:47:03;81603.74;;;6.30;32.36
70437;BME280;57877;39.750;-104.894;2023-02-22T03:49:30;81603.30;;;6.61;31.84
70437;BME280;57877;39.750;-104.894;2023-02-22T03:51:50;81600.83;;;6.68;31.69
70437;BME280;57877;39.750;-104.894;2023-02-22T03:54:15;81597.63;;;6.53;31.30
70437;BME280;57877;39.750;-104.894;2023-02-22T03:56:44;81599.67;;;6.38;30.95
70437;BME280;57877;39.750;-104.894;2023-02-22T03:59:07;81600.97;;;6.70;30.69
70437;BME280;57877;39.750;-104.894;2023-02-22T04:01:30;81597.70;;;6.39;31.04
70437;BME280;57877;39.750;-104.894;2023-02-22T04:03:55;81597.42;;;6.91;30.38
70437;BME280;57877;39.750;-104.894;2023-02-22T04:06:20;81595.87;;;6.96;30.20
70437;BME280;57877;39.750;-104.894;2023-02-22T04:08:45;81600.85;;;6.63;30.80
70437;BME280;57877;39.750;-104.894;2023-02-22T04:11:11;81602.46;;;6.17;31.09
70437;BME280;57877;39.750;-104.894;2023-02-22T04:13:35;81601.85;;;6.84;30.49
70437;BME280;57877;39.750;-104.894;2023-02-22T04:16:01;81601.16;;;6.72;30.18
70437;BME280;57877;39.750;-104.894;2023-02-22T04:18:26;81611.78;;;4.98;32.19
70437;BME280;57877;39.750;-104.894;2023-02-22T04:20:51;81620.36;;;5.68;31.74
70437;BME280;57877;39.750;-104.894;2023-02-22T04:23:16;81621.74;;;4.50;33.43
70437;BME280;57877;39.750;-104.894;2023-02-22T04:25:41;81617.67;;;3.54;34.92
70437;BME280;57877;39.750;-104.894;2023-02-22T04:28:06;81624.05;;;5.58;32.73
70437;BME280;57877;39.750;-104.894;2023-02-22T04:30:31;81621.64;;;5.71;32.00
70437;BME280;57877;39.750;-104.894;2023-02-22T04:32:56;81619.16;;;6.03;31.37
70437;BME280;57877;39.750;-104.894;2023-02-22T04:35:22;81622.95;;;5.75;31.58
70437;BME280;57877;39.750;-104.894;2023-02-22T04:37:46;81620.85;;;6.48;30.84
70437;BME280;57877;39.750;-104.894;2023-02-22T04:40:12;81623.72;;;6.42;30.73
70437;BME280;57877;39.750;-104.894;2023-02-22T04:42:37;81620.03;;;5.49;31.97
70437;BME280;57877;39.750;-104.894;2023-02-22T04:45:02;81625.07;;;5.58;32.24
70437;BME280;57877;39.750;-104.894;2023-02-22T04:47:27;81623.02;;;5.99;31.81
70437;BME280;57877;39.750;-104.894;2023-02-22T04:49:52;81620.91;;;6.05;31.52
70437;BME280;57877;39.750;-104.894;2023-02-22T04:52:17;81624.25;;;6.01;31.72
70437;BME280;57877;39.750;-104.894;2023-02-22T04:54:42;81616.30;;;6.41;31.14
70437;BME280;57877;39.750;-104.894;2023-02-22T04:57:07;81615.79;;;6.47;31.50
70437;BME280;57877;39.750;-104.894;2023-02-22T04:59:32;81616.36;;;6.11;31.57
70437;BME280;57877;39.750;-104.894;2023-02-22T05:01:57;81620.49;;;6.16;31.36
70437;BME280;57877;39.750;-104.894;2023-02-22T05:04:22;81627.48;;;6.70;31.04
70437;BME280;57877;39.750;-104.894;2023-02-22T05:06:47;81627.80;;;6.48;31.55
70437;BME280;57877;39.750;-104.894;2023-02-22T05:09:13;81627.34;;;6.43;31.56
70437;BME280;57877;39.750;-104.894;2023-02-22T05:11:38;81632.48;;;6.26;32.26
70437;BME280;57877;39.750;-104.894;2023-02-22T05:14:03;81634.73;;;6.32;31.90
70437;BME280;57877;39.750;-104.894;2023-02-22T05:16:28;81637.41;;;6.76;31.43
70437;BME280;57877;39.750;-104.894;2023-02-22T05:18:53;81640.32;;;6.92;31.36
70437;BME280;57877;39.750;-104.894;2023-02-22T05:21:18;81645.09;;;5.91;32.05
70437;BME280;57877;39.750;-104.894;2023-02-22T05:23:43;81649.83;;;5.68;32.51
70437;BME280;57877;39.750;-104.894;2023-02-22T05:26:08;81648.17;;;5.49;33.60
70437;BME280;57877;39.750;-104.894;2023-02-22T05:28:33;81645.55;;;5.62;33.53
70437;BME280;57877;39.750;-104.894;2023-02-22T05:30:58;81645.90;;;4.74;34.98
70437;BME280;57877;39.750;-104.894;2023-02-22T05:33:23;81648.94;;;5.33;35.29
70437;BME280;57877;39.750;-104.894;2023-02-22T05:35:49;81652.65;;;5.69;34.67
70437;BME280;57877;39.750;-104.894;2023-02-22T05:38:14;81652.86;;;5.05;34.67
70437;BME280;57877;39.750;-104.894;2023-02-22T05:40:38;81651.81;;;5.81;34.42
70437;BME280;57877;39.750;-104.894;2023-02-22T05:43:04;81646.18;;;5.69;34.14
70437;BME280;57877;39.750;-104.894;2023-02-22T05:45:29;81647.01;;;5.94;33.61
70437;BME280;57877;39.750;-104.894;2023-02-22T05:47:55;81651.00;;;6.44;33.13
70437;BME280;57877;39.750;-104.894;2023-02-22T05:50:19;81648.71;;;6.38;32.93
70437;BME280;57877;39.750;-104.894;2023-02-22T05:52:44;81653.61;;;6.61;32.39
70437;BME280;57877;39.750;-104.894;2023-02-22T05:55:11;81655.45;;;6.97;32.26
70437;BME280;57877;39.750;-104.894;2023-02-22T05:57:34;81656.05;;;6.63;32.40
70437;BME280;57877;39.750;-104.894;2023-02-22T06:02:24;81657.28;;;7.09;31.69
70437;BME280;57877;39.750;-104.894;2023-02-22T06:04:50;81659.53;;;7.18;31.58
70437;BME280;57877;39.750;-104.894;2023-02-22T06:07:15;81657.70;;;6.74;31.98
70437;BME280;57877;39.750;-104.894;2023-02-22T06:09:40;81656.22;;;6.74;32.22
70437;BME280;57877;39.750;-104.894;2023-02-22T06:12:05;81657.58;;;6.64;32.36
70437;BME280;57877;39.750;-104.894;2023-02-22T06:14:30;81658.49;;;6.33;32.77
70437;BME280;57877;39.750;-104.894;2023-02-22T06:16:56;81661.72;;;6.39;32.70
70437;BME280;57877;39.750;-104.894;2023-02-22T06:19:20;81662.71;;;6.31;33.05
70437;BME280;57877;39.750;-104.894;2023-02-22T06:21:49;81663.33;;;6.19;33.62
70437;BME280;57877;39.750;-104.894;2023-02-22T06:24:10;81663.38;;;5.73;34.19
70437;BME280;57877;39.750;-104.894;2023-02-22T06:26:35;81658.42;;;6.27;33.92
70437;BME280;57877;39.750;-104.894;2023-02-22T06:29:00;81653.10;;;6.00;34.32
70437;BME280;57877;39.750;-104.894;2023-02-22T06:31:25;81650.05;;;5.58;35.81
70437;BME280;57877;39.750;-104.894;2023-02-22T06:33:50;81646.60;;;5.85;34.65
70437;BME280;57877;39.750;-104.894;2023-02-22T06:36:15;81646.75;;;5.88;34.65
70437;BME280;57877;39.750;-104.894;2023-02-22T06:38:40;81646.07;;;5.89;34.72
70437;BME280;57877;39.750;-104.894;2023-02-22T06:41:05;81638.53;;;5.61;35.11
70437;BME280;57877;39.750;-104.894;2023-02-22T06:43:30;81630.54;;;5.40;35.65
70437;BME280;57877;39.750;-104.894;2023-02-22T06:45:55;81631.31;;;5.36;35.55
70437;BME280;57877;39.750;-104.894;2023-02-22T06:48:20;81632.37;;;5.57;35.40
70437;BME280;57877;39.750;-104.894;2023-02-22T06:50:46;81632.56;;;5.59;35.44
70437;BME280;57877;39.750;-104.894;2023-02-22T06:53:11;81623.80;;;5.15;36.01
70437;BME280;57877;39.750;-104.894;2023-02-22T06:55:36;81621.06;;;5.30;36.00
70437;BME280;57877;39.750;-104.894;2023-02-22T06:58:02;81624.54;;;5.31;35.87
70437;BME280;57877;39.750;-104.894;2023-02-22T07:00:28;81621.74;;;5.75;36.26
70437;BME280;57877;39.750;-104.894;2023-02-22T07:02:52;81616.50;;;5.73;35.53
70437;BME280;57877;39.750;-104.894;2023-02-22T07:05:18;81613.16;;;4.99;36.59
70437;BME280;57877;39.750;-104.894;2023-02-22T07:07:41;81609.97;;;4.67;37.60
70437;BME280;57877;39.750;-104.894;2023-02-22T07:10:14;81608.12;;;5.13;37.01
70437;BME280;57877;39.750;-104.894;2023-02-22T07:12:31;81608.93;;;5.64;36.66
70437;BME280;57877;39.750;-104.894;2023-02-22T07:14:57;81608.97;;;4.94;37.59
70437;BME280;57877;39.750;-104.894;2023-02-22T07:17:21;81611.54;;;4.97;37.51
70437;BME280;57877;39.750;-104.894;2023-02-22T07:19:47;81614.78;;;5.09;37.50
70437;BME280;57877;39.750;-104.894;2023-02-22T07:22:12;81616.76;;;4.95;36.99
70437;BME280;57877;39.750;-104.894;2023-02-22T07:24:37;81615.53;;;5.30;36.94
70437;BME280;57877;39.750;-104.894;2023-02-22T07:27:02;81615.46;;;5.46;36.71
70437;BME280;57877;39.750;-104.894;2023-02-22T07:29:28;81615.91;;;5.67;36.28
70437;BME280;57877;39.750;-104.894;2023-02-22T07:31:52;81615.28;;;5.59;35.90
70437;BME280;57877;39.750;-104.894;2023-02-22T07:34:17;81610.25;;;5.71;35.68
70437;BME280;57877;39.750;-104.894;2023-02-22T07:36:43;81613.96;;;5.32;36.38
70437;BME280;57877;39.750;-104.894;2023-02-22T07:39:07;81618.03;;;5.44;36.02
70437;BME280;57877;39.750;-104.894;2023-02-22T07:41:33;81623.39;;;5.57;35.89
70437;BME280;57877;39.750;-104.894;2023-02-22T07:43:57;81632.55;;;5.47;35.78
70437;BME280;57877;39.750;-104.894;2023-02-22T07:46:23;81634.58;;;5.76;35.38
70437;BME280;57877;39.750;-104.894;2023-02-22T07:48:48;81631.48;;;5.62;35.95
70437;BME280;57877;39.750;-104.894;2023-02-22T07:51:15;81630.12;;;5.24;36.36
70437;BME280;57877;39.750;-104.894;2023-02-22T07:53:38;81631.68;;;5.21;37.34
70437;BME280;57877;39.750;-104.894;2023-02-22T07:56:04;81630.70;;;4.59;38.05
70437;BME280;57877;39.750;-104.894;2023-02-22T07:58:29;81633.39;;;4.68;38.17
70437;BME280;57877;39.750;-104.894;2023-02-22T08:00:53;81642.19;;;3.46;40.03
70437;BME280;57877;39.750;-104.894;2023-02-22T08:03:22;81663.49;;;2.60;42.90
70437;BME280;57877;39.750;-104.894;2023-02-22T08:05:47;81684.14;;;-2.04;49.77
70437;BME280;57877;39.750;-104.894;2023-02-22T08:08:08;81699.45;;;-3.64;52.68
70437;BME280;57877;39.750;-104.894;2023-02-22T08:10:34;81711.87;;;-3.12;53.54
70437;BME280;57877;39.750;-104.894;2023-02-22T08:12:59;81716.49;;;-4.32;55.50
70437;BME280;57877;39.750;-104.894;2023-02-22T08:15:26;81706.38;;;-4.53;57.22
70437;BME280;57877;39.750;-104.894;2023-02-22T08:17:49;81715.15;;;-6.15;62.47
70437;BME280;57877;39.750;-104.894;2023-02-22T08:20:14;81713.60;;;-6.45;63.39
70437;BME280;57877;39.750;-104.894;2023-02-22T08:22:42;81725.43;;;-6.62;62.61
70437;BME280;57877;39.750;-104.894;2023-02-22T08:25:05;81736.37;;;-6.47;62.00
70437;BME280;57877;39.750;-104.894;2023-02-22T08:27:30;81744.70;;;-5.81;60.53
70437;BME280;57877;39.750;-104.894;2023-02-22T08:29:56;81754.98;;;-5.81;59.44
70437;BME280;57877;39.750;-104.894;2023-02-22T08:32:20;81746.86;;;-6.20;60.70
70437;BME280;57877;39.750;-104.894;2023-02-22T08:34:45;81737.19;;;-6.50;61.69
70437;BME280;57877;39.750;-104.894;2023-02-22T08:37:11;81737.63;;;-7.31;61.58
70437;BME280;57877;39.750;-104.894;2023-02-22T08:39:36;81743.45;;;-7.04;61.51
70437;BME280;57877;39.750;-104.894;2023-02-22T08:42:02;81743.45;;;-6.56;61.60
70437;BME280;57877;39.750;-104.894;2023-02-22T08:44:26;81742.31;;;-6.77;59.25
70437;BME280;57877;39.750;-104.894;2023-02-22T08:46:51;81748.41;;;-7.30;60.92
70437;BME280;57877;39.750;-104.894;2023-02-22T08:49:17;81741.58;;;-7.27;61.85
70437;BME280;57877;39.750;-104.894;2023-02-22T08:51:42;81745.88;;;-7.08;61.32
70437;BME280;57877;39.750;-104.894;2023-02-22T08:54:07;81760.27;;;-7.94;61.74
70437;BME280;57877;39.750;-104.894;2023-02-22T08:56:32;81760.75;;;-7.06;61.66
70437;BME280;57877;39.750;-104.894;2023-02-22T08:58:57;81759.02;;;-7.43;61.12
70437;BME280;57877;39.750;-104.894;2023-02-22T09:01:23;81756.23;;;-7.58;61.03
70437;BME280;57877;39.750;-104.894;2023-02-22T09:03:48;81758.47;;;-7.98;61.73
70437;BME280;57877;39.750;-104.894;2023-02-22T09:06:13;81759.57;;;-7.79;59.27
70437;BME280;57877;39.750;-104.894;2023-02-22T09:08:38;81758.52;;;-8.33;60.19
70437;BME280;57877;39.750;-104.894;2023-02-22T09:11:04;81768.47;;;-8.26;59.58
70437;BME280;57877;39.750;-104.894;2023-02-22T09:13:29;81782.04;;;-7.89;58.97
70437;BME280;57877;39.750;-104.894;2023-02-22T09:15:55;81795.47;;;-7.42;55.90
70437;BME280;57877;39.750;-104.894;2023-02-22T09:18:19;81811.18;;;-7.24;54.95
70437;BME280;57877;39.750;-104.894;2023-02-22T09:20:45;81809.78;;;-7.75;55.81
70437;BME280;57877;39.750;-104.894;2023-02-22T09:23:10;81801.26;;;-7.55;55.60
70437;BME280;57877;39.750;-104.894;2023-02-22T09:25:35;81803.80;;;-8.70;57.95
70437;BME280;57877;39.750;-104.894;2023-02-22T09:28:01;81802.82;;;-8.95;57.99
70437;BME280;57877;39.750;-104.894;2023-02-22T09:30:28;81799.52;;;-8.28;56.93
70437;BME280;57877;39.750;-104.894;2023-02-22T09:32:54;81800.14;;;-9.24;57.02
70437;BME280;57877;39.750;-104.894;2023-02-22T09:35:16;81806.14;;;-7.53;54.75
70437;BME280;57877;39.750;-104.894;2023-02-22T09:37:42;81811.65;;;-8.30;54.55
70437;BME280;57877;39.750;-104.894;2023-02-22T09:40:08;81812.02;;;-8.63;56.09
70437;BME280;57877;39.750;-104.894;2023-02-22T09:42:36;81821.19;;;-8.88;56.34
70437;BME280;57877;39.750;-104.894;2023-02-22T09:45:02;81837.56;;;-8.90;55.75
70437;BME280;57877;39.750;-104.894;2023-02-22T09:47:25;81843.15;;;-8.09;54.70
70437;BME280;57877;39.750;-104.894;2023-02-22T09:49:55;81838.84;;;-8.71;55.38
70437;BME280;57877;39.750;-104.894;2023-02-22T09:52:19;81829.36;;;-8.83;55.86
70437;BME280;57877;39.750;-104.894;2023-02-22T09:54:41;81838.48;;;-9.08;54.00
70437;BME280;57877;39.750;-104.894;2023-02-22T09:57:08;81845.33;;;-9.56;55.76
70437;BME280;57877;39.750;-104.894;2023-02-22T09:59:32;81855.29;;;-9.59;55.10
70437;BME280;57877;39.750;-104.894;2023-02-22T10:01:59;81855.98;;;-8.74;53.87
70437;BME280;57877;39.750;-104.894;2023-02-22T10:04:23;81861.07;;;-8.76;53.15
70437;BME280;57877;39.750;-104.894;2023-02-22T10:06:57;81859.50;;;-9.58;54.00
70437;BME280;57877;39.750;-104.894;2023-02-22T10:09:10;81860.98;;;-9.49;55.02
70437;BME280;57877;39.750;-104.894;2023-02-22T10:11:45;81868.39;;;-9.21;53.10
70437;BME280;57877;39.750;-104.894;2023-02-22T10:14:08;81876.73;;;-9.44;53.07
70437;BME280;57877;39.750;-104.894;2023-02-22T10:16:31;81866.71;;;-9.62;53.37
70437;BME280;57877;39.750;-104.894;2023-02-22T10:18:59;81863.53;;;-10.69;55.92
70437;BME280;57877;39.750;-104.894;2023-02-22T10:21:28;81865.75;;;-10.26;56.10
70437;BME280;57877;39.750;-104.894;2023-02-22T10:23:48;81869.09;;;-10.06;56.84
70437;BME280;57877;39.750;-104.894;2023-02-22T10:26:14;81868.57;;;-9.83;55.44
70437;BME280;57877;39.750;-104.894;2023-02-22T10:28:36;81881.87;;;-10.34;54.90
70437;BME280;57877;39.750;-104.894;2023-02-22T10:31:02;81890.30;;;-10.11;54.77
70437;BME280;57877;39.750;-104.894;2023-02-22T10:33:25;81879.17;;;-10.16;55.85
70437;BME280;57877;39.750;-104.894;2023-02-22T10:35:51;81881.89;;;-10.78;56.23
70437;BME280;57877;39.750;-104.894;2023-02-22T10:38:17;81877.89;;;-10.27;57.16
70437;BME280;57877;39.750;-104.894;2023-02-22T10:40:39;81885.47;;;-10.12;55.14
70437;BME280;57877;39.750;-104.894;2023-02-22T10:43:05;81900.06;;;-10.73;57.04
70437;BME280;57877;39.750;-104.894;2023-02-22T10:45:31;81911.05;;;-10.17;56.43
70437;BME280;57877;39.750;-104.894;2023-02-22T10:47:56;81918.10;;;-10.40;55.35
70437;BME280;57877;39.750;-104.894;2023-02-22T10:50:21;81912.81;;;-10.02;54.95
70437;BME280;57877;39.750;-104.894;2023-02-22T10:52:46;81910.04;;;-10.57;55.47
70437;BME280;57877;39.750;-104.894;2023-02-22T10:55:13;81902.16;;;-11.07;56.09
70437;BME280;57877;39.750;-104.894;2023-02-22T10:57:36;81907.08;;;-10.31;55.34
70437;BME280;57877;39.750;-104.894;2023-02-22T11:02:30;81908.75;;;-12.00;56.34
70437;BME280;57877;39.750;-104.894;2023-02-22T11:04:54;81913.65;;;-11.82;57.64
70437;BME280;57877;39.750;-104.894;2023-02-22T11:07:22;81921.02;;;-11.39;55.76
70437;BME280;57877;39.750;-104.894;2023-02-22T11:09:47;81943.85;;;-11.23;55.65
70437;BME280;57877;39.750;-104.894;2023-02-22T11:12:10;81945.39;;;-11.44;55.49
70437;BME280;57877;39.750;-104.894;2023-02-22T11:14:34;81948.09;;;-11.58;55.65
70437;BME280;57877;39.750;-104.894;2023-02-22T11:17:00;81950.25;;;-11.98;55.88
70437;BME280;57877;39.750;-104.894;2023-02-22T11:19:26;81955.30;;;-11.83;55.52
70437;BME280;57877;39.750;-104.894;2023-02-22T11:21:52;81954.60;;;-11.20;55.34
70437;BME280;57877;39.750;-104.894;2023-02-22T11:24:15;81960.69;;;-12.38;55.23
70437;BME280;57877;39.750;-104.894;2023-02-22T11:26:42;81961.99;;;-11.97;55.66
70437;BME280;57877;39.750;-104.894;2023-02-22T11:29:11;81960.84;;;-12.00;55.65
70437;BME280;57877;39.750;-104.894;2023-02-22T11:31:31;81956.38;;;-11.56;54.58
70437;BME280;57877;39.750;-104.894;2023-02-22T11:33:58;81955.51;;;-11.96;55.84
70437;BME280;57877;39.750;-104.894;2023-02-22T11:36:30;81978.28;;;-12.16;56.09
70437;BME280;57877;39.750;-104.894;2023-02-22T11:38:53;81996.75;;;-11.94;55.44
70437;BME280;57877;39.750;-104.894;2023-02-22T11:41:15;81994.95;;;-11.16;54.06
70437;BME280;57877;39.750;-104.894;2023-02-22T11:43:38;81995.47;;;-11.05;53.49
70437;BME280;57877;39.750;-104.894;2023-02-22T11:46:05;81991.11;;;-12.21;55.10
70437;BME280;57877;39.750;-104.894;2023-02-22T11:48:31;81997.43;;;-11.78;54.35
70437;BME280;57877;39.750;-104.894;2023-02-22T11:51:02;81997.52;;;-11.79;55.06
70437;BME280;57877;39.750;-104.894;2023-02-22T11:53:28;81992.94;;;-11.55;54.08
70437;BME280;57877;39.750;-104.894;2023-02-22T11:55:50;81983.63;;;-12.44;54.61
70437;BME280;57877;39.750;-104.894;2023-02-22T11:58:23;81981.14;;;-12.60;54.57
70437;BME280;57877;39.750;-104.894;2023-02-22T12:00:45;81984.86;;;-11.92;53.19
70437;BME280;57877;39.750;-104.894;2023-02-22T12:05:36;82011.72;;;-11.07;51.97
70437;BME280;57877;39.750;-104.894;2023-02-22T12:08:00;81993.19;;;-11.43;50.43
70437;BME280;57877;39.750;-104.894;2023-02-22T12:10:25;81994.22;;;-11.49;51.32
70437;BME280;57877;39.750;-104.894;2023-02-22T12:12:53;82003.11;;;-12.00;51.52
70437;BME280;57877;39.750;-104.894;2023-02-22T12:15:12;82007.93;;;-12.23;52.55
70437;BME280;57877;39.750;-104.894;2023-02-22T12:17:43;82005.00;;;-11.70;52.12
70437;BME280;57877;39.750;-104.894;2023-02-22T12:20:03;82004.21;;;-12.30;51.21
70437;BME280;57877;39.750;-104.894;2023-02-22T12:22:25;81997.27;;;-12.92;53.30
70437;BME280;57877;39.750;-104.894;2023-02-22T12:24:55;81999.10;;;-13.03;53.62
70437;BME280;57877;39.750;-104.894;2023-02-22T12:27:18;82006.61;;;-13.15;53.89
70437;BME280;57877;39.750;-104.894;2023-02-22T12:29:44;81999.46;;;-13.01;53.53
70437;BME280;57877;39.750;-104.894;2023-02-22T12:32:09;82010.75;;;-12.65;52.62
70437;BME280;57877;39.750;-104.894;2023-02-22T12:34:34;82013.99;;;-12.66;52.12
70437;BME280;57877;39.750;-104.894;2023-02-22T12:37:02;82032.11;;;-13.50;53.44
70437;BME280;57877;39.750;-104.894;2023-02-22T12:39:34;82041.93;;;-12.80;52.42
70437;BME280;57877;39.750;-104.894;2023-02-22T12:41:48;82040.85;;;-12.97;52.97